Time;durP1;ratioP1;P1;durP2;ratioP2;P2;SDS_P1;SDS_P2;PMS_P1;PMS_P2;Temp;Humidity;BMP_temperature;BMP_pressure;BME280_temperature;BME280_humidity;BME280_pressure;Samples;Min_cycle;Max_cycle;Signal;HPM_P1;HPM_P2
2022/05/13 00:01:20;;;;;;;0.00;0.00;;;22.20;92.70;;;;;;5000437;28;20018;-80
2022/05/13 00:03:45;;;;;;;0.00;0.00;;;22.20;92.70;;;;;;5003798;28;20171;-78
2022/05/13 00:06:12;;;;;;;0.00;0.00;;;22.10;92.70;;;;;;5002797;28;20053;-79
2022/05/13 00:08:38;;;;;;;0.00;0.00;;;22.10;92.90;;;;;;5003582;28;20072;-82
2022/05/13 00:11:06;;;;;;;0.00;0.00;;;22.00;92.90;;;;;;5004310;28;20180;-82
2022/05/13 00:13:50;;;;;;;0.00;0.00;;;22.00;93.20;;;;;;5003677;28;20019;-85
2022/05/13 00:16:16;;;;;;;0.00;0.00;;;22.00;93.50;;;;;;5003102;28;20089;-81
2022/05/13 00:18:41;;;;;;;0.00;0.00;;;22.00;93.30;;;;;;5003936;28;20026;-77
2022/05/13 00:21:07;;;;;;;0.00;0.00;;;22.00;93.50;;;;;;5018543;28;20053;-81
2022/05/13 00:23:33;;;;;;;0.00;0.00;;;22.00;93.60;;;;;;5003172;28;20033;-81
2022/05/13 00:25:59;;;;;;;0.00;0.00;;;22.00;93.90;;;;;;5003488;28;20094;-82
2022/05/13 00:28:25;;;;;;;0.00;0.00;;;22.00;94.10;;;;;;5002965;28;20426;-81
2022/05/13 00:30:51;;;;;;;0.00;0.00;;;22.00;93.20;;;;;;5019252;28;20022;-81
2022/05/13 00:33:18;;;;;;;0.00;0.00;;;21.90;92.60;;;;;;5003678;28;20023;-81
2022/05/13 00:35:44;;;;;;;0.00;0.00;;;21.90;92.30;;;;;;5003877;28;20082;-79
2022/05/13 00:38:10;;;;;;;0.00;0.00;;;21.90;91.30;;;;;;5002490;28;20072;-80
2022/05/13 00:40:36;;;;;;;0.00;0.00;;;21.80;90.90;;;;;;5003480;28;20022;-80
2022/05/13 00:43:06;;;;;;;0.00;0.00;;;21.70;90.10;;;;;;5002916;28;20199;-81
2022/05/13 00:45:32;;;;;;;0.00;0.00;;;21.80;90.30;;;;;;5004402;28;20025;-81
2022/05/13 00:47:59;;;;;;;0.00;0.00;;;21.70;90.30;;;;;;5004196;28;20026;-81
2022/05/13 00:50:27;;;;;;;0.00;0.00;;;21.60;90.20;;;;;;5003453;28;20049;-79
2022/05/13 00:52:53;;;;;;;0.00;0.00;;;21.50;90.20;;;;;;5003756;28;20325;-82
2022/05/13 00:55:27;;;;;;;0.00;0.00;;;21.30;90.10;;;;;;5002566;28;20082;-79
2022/05/13 00:57:53;;;;;;;0.00;0.00;;;21.20;91.10;;;;;;5003077;28;20026;-81
2022/05/13 01:00:20;;;;;;;0.00;0.00;;;21.10;91.30;;;;;;5002243;28;20021;-80
2022/05/13 01:02:46;;;;;;;0.00;0.00;;;21.00;92.30;;;;;;5017693;28;20026;-81
2022/05/13 01:05:15;;;;;;;0.00;0.00;;;21.00;92.80;;;;;;5017919;28;20208;-81
2022/05/13 01:07:42;;;;;;;0.00;0.00;;;21.00;93.20;;;;;;5021548;22;20045;-76
2022/05/13 01:10:13;;;;;;;0.00;0.00;;;20.90;93.90;;;;;;5023908;28;20356;-76
2022/05/13 01:12:43;;;;;;;0.00;0.00;;;20.90;93.80;;;;;;5021575;28;20084;-76
2022/05/13 01:15:13;;;;;;;0.00;0.00;;;20.80;93.00;;;;;;5027871;28;20097;-76
2022/05/13 01:20:31;;;;;;;0.00;0.00;;;20.50;94.00;;;;;;5031348;28;20037;-77
2022/05/13 01:23:00;;;;;;;0.00;0.00;;;20.30;94.40;;;;;;5046671;28;20212;-76
2022/05/13 01:25:29;;;;;;;0.00;0.00;;;20.20;95.10;;;;;;5024151;28;20052;-75
2022/05/13 01:28:04;;;;;;;0.00;0.00;;;20.00;95.60;;;;;;5018670;28;20278;-76
2022/05/13 01:30:30;;;;;;;0.00;0.00;;;19.90;96.80;;;;;;5026362;28;20017;-74
2022/05/13 01:32:56;;;;;;;0.00;0.00;;;19.70;97.70;;;;;;5027931;28;20033;-75
2022/05/13 01:35:22;;;;;;;0.00;0.00;;;19.50;98.10;;;;;;5022070;28;20186;-75
2022/05/13 01:37:49;;;;;;;0.00;0.00;;;19.30;98.80;;;;;;5022730;28;20056;-75
2022/05/13 01:40:16;;;;;;;0.00;0.00;;;19.30;99.80;;;;;;5040267;28;20115;-76
2022/05/13 01:42:41;;;;;;;0.00;0.00;;;19.20;99.90;;;;;;5027539;28;20040;-75
2022/05/13 01:45:10;;;;;;;0.00;0.00;;;19.20;99.90;;;;;;5021685;28;20026;-75
2022/05/13 01:47:35;;;;;;;;;;;19.10;99.90;;;;;;5017915;28;20203;-75
2022/05/13 01:50:01;;;;;;;0.00;0.00;;;19.10;99.90;;;;;;5027744;28;20104;-76
2022/05/13 01:52:27;;;;;;;0.00;0.00;;;19.10;99.90;;;;;;5026002;28;20024;-76
2022/05/13 01:54:53;;;;;;;0.00;0.00;;;19.00;99.90;;;;;;5029004;28;20030;-76
2022/05/13 01:57:19;;;;;;;0.00;0.00;;;19.00;99.90;;;;;;5024878;28;20081;-76
2022/05/13 01:59:44;;;;;;;0.00;0.00;;;19.10;99.90;;;;;;5026121;28;20029;-76
2022/05/13 02:02:10;;;;;;;0.00;0.00;;;19.00;99.90;;;;;;5028923;28;20017;-76
2022/05/13 02:04:37;;;;;;;0.00;0.00;;;19.00;99.90;;;;;;5020595;28;20101;-76
2022/05/13 02:07:03;;;;;;;0.00;0.00;;;19.00;99.90;;;;;;5026068;28;20036;-75
2022/05/13 02:09:29;;;;;;;0.00;0.00;;;19.00;99.90;;;;;;5028952;28;20139;-75
2022/05/13 02:11:55;;;;;;;0.00;0.00;;;19.00;99.90;;;;;;5018730;28;20036;-76
2022/05/13 02:14:21;;;;;;;0.00;0.00;;;19.00;99.90;;;;;;5021873;28;20270;-76
2022/05/13 02:16:47;;;;;;;0.00;0.00;;;19.00;99.90;;;;;;5022872;28;20277;-75
2022/05/13 02:19:13;;;;;;;0.00;0.00;;;19.00;99.90;;;;;;5027286;28;20030;-75
2022/05/13 02:21:39;;;;;;;0.00;0.00;;;19.00;99.90;;;;;;5022036;28;20037;-74
2022/05/13 02:24:05;;;;;;;0.00;0.00;;;19.00;99.90;;;;;;5016731;28;20399;-76
2022/05/13 02:26:31;;;;;;;0.00;0.00;;;19.00;99.90;;;;;;5031741;28;20033;-76
2022/05/13 02:29:01;;;;;;;0.00;0.00;;;18.90;99.90;;;;;;5022967;28;20075;-76
2022/05/13 02:31:30;;;;;;;0.00;0.00;;;19.00;99.90;;;;;;5022093;28;20049;-76
2022/05/13 02:33:58;;;;;;;0.00;0.00;;;19.00;99.90;;;;;;5026284;28;20045;-76
2022/05/13 02:36:25;;;;;;;0.00;0.00;;;19.00;99.90;;;;;;5023866;28;20345;-76
2022/05/13 02:38:51;;;;;;;0.00;0.00;;;19.00;99.90;;;;;;5023446;28;20029;-75
2022/05/13 02:41:16;;;;;;;0.00;0.00;;;19.00;99.90;;;;;;5027458;28;20021;-76
2022/05/13 02:43:42;;;;;;;0.00;0.00;;;19.00;99.90;;;;;;5019490;28;20332;-76
2022/05/13 02:46:08;;;;;;;0.00;0.00;;;19.00;99.90;;;;;;5023777;28;20029;-76
2022/05/13 02:48:35;;;;;;;0.00;0.00;;;19.00;99.90;;;;;;5026370;28;20033;-76
2022/05/13 02:51:01;;;;;;;0.00;0.00;;;19.00;99.90;;;;;;5029745;28;20048;-78
2022/05/13 02:53:27;;;;;;;0.00;0.00;;;19.00;99.90;;;;;;5026012;28;20096;-76
2022/05/13 02:55:52;;;;;;;0.00;0.00;;;19.00;99.90;;;;;;5023521;28;20266;-75
2022/05/13 02:58:18;;;;;;;0.00;0.00;;;19.00;99.90;;;;;;5020782;28;20871;-75
2022/05/13 03:00:44;;;;;;;0.00;0.00;;;19.10;99.90;;;;;;5020106;28;20296;-75
2022/05/13 03:03:11;;;;;;;0.00;0.00;;;19.10;99.90;;;;;;5027214;28;20355;-75
2022/05/13 03:05:38;;;;;;;0.00;0.00;;;19.10;99.90;;;;;;5007809;28;20022;-75
2022/05/13 03:08:06;;;;;;;0.00;0.00;;;19.10;99.90;;;;;;5024030;28;20057;-73
2022/05/13 03:10:32;;;;;;;;;;;19.10;99.90;;;;;;5025117;28;20030;-74
2022/05/13 03:12:59;;;;;;;0.00;0.00;;;19.00;99.90;;;;;;5030939;28;19909;-74
2022/05/13 03:15:26;;;;;;;0.00;0.00;;;19.00;99.90;;;;;;5026385;28;20028;-74
2022/05/13 03:17:52;;;;;;;0.00;0.00;;;18.90;99.90;;;;;;5022971;28;20067;-74
2022/05/13 03:20:20;;;;;;;0.00;0.00;;;18.90;99.90;;;;;;5019684;28;20304;-76
2022/05/13 03:22:46;;;;;;;;;;;18.90;99.90;;;;;;5025665;28;20032;-74
2022/05/13 03:25:13;;;;;;;0.00;0.00;;;18.90;99.90;;;;;;5019668;28;19936;-73
2022/05/13 03:27:39;;;;;;;0.00;0.00;;;18.90;99.90;;;;;;5017002;28;20029;-73
2022/05/13 03:30:07;;;;;;;0.00;0.00;;;18.90;99.90;;;;;;5018745;28;20428;-75
2022/05/13 03:32:32;;;;;;;0.00;0.00;;;18.90;99.90;;;;;;5014827;28;20032;-74
2022/05/13 03:35:17;;;;;;;0.00;0.00;;;19.00;99.90;;;;;;5017938;28;20053;-73
2022/05/13 03:37:43;;;;;;;0.00;0.00;;;18.90;99.90;;;;;;5016460;28;20018;-73
2022/05/13 03:40:11;;;;;;;0.00;0.00;;;18.90;99.90;;;;;;5022738;28;20344;-75
2022/05/13 03:42:37;;;;;;;0.00;0.00;;;19.00;99.90;;;;;;5018319;28;20065;-75
2022/05/13 03:45:05;;;;;;;0.00;0.00;;;19.00;99.90;;;;;;5024158;28;20081;-73
2022/05/13 03:47:31;;;;;;;0.00;0.00;;;18.90;99.90;;;;;;5027115;28;20029;-75
2022/05/13 03:49:57;;;;;;;0.00;0.00;;;18.90;99.90;;;;;;5023046;28;20037;-75
2022/05/13 03:52:22;;;;;;;0.00;0.00;;;18.90;99.90;;;;;;5020819;28;20214;-75
2022/05/13 03:54:48;;;;;;;0.00;0.00;;;18.90;99.90;;;;;;5023637;28;20021;-75
2022/05/13 03:57:14;;;;;;;0.00;0.00;;;18.80;99.90;;;;;;5040122;28;20018;-74
2022/05/13 03:59:40;;;;;;;0.00;0.00;;;18.80;99.90;;;;;;5020672;28;20038;-75
2022/05/13 04:02:06;;;;;;;0.00;0.00;;;18.80;99.90;;;;;;5027039;28;20352;-74
2022/05/13 04:08:56;;;;;;;0.00;0.00;;;18.80;99.90;;;;;;5017731;28;20025;-74
2022/05/13 04:10:06;;;;;;;0.00;0.00;;;18.80;99.90;;;;;;5023334;28;20120;-74
2022/05/13 04:17:59;;;;;;;0.00;0.00;;;19.00;99.90;;;;;;5021784;28;20072;-75
2022/05/13 04:20:26;;;;;;;0.00;0.00;;;18.90;99.90;;;;;;5021634;28;20068;-75
2022/05/13 04:22:51;;;;;;;0.00;0.00;;;18.90;99.90;;;;;;5037129;28;20030;-74
2022/05/13 04:25:18;;;;;;;0.00;0.00;;;19.00;99.90;;;;;;5021345;28;20057;-76
2022/05/13 04:27:43;;;;;;;0.00;0.00;;;19.00;99.90;;;;;;5019299;28;20112;-76
2022/05/13 04:30:10;;;;;;;0.00;0.00;;;19.00;99.90;;;;;;5017812;28;20041;-75
2022/05/13 04:32:35;;;;;;;0.00;0.00;;;19.00;99.90;;;;;;5026465;28;20033;-75
2022/05/13 04:35:01;;;;;;;0.00;0.00;;;19.00;99.90;;;;;;5016985;28;20029;-76
2022/05/13 04:37:28;;;;;;;0.00;0.00;;;18.90;99.90;;;;;;5017660;28;20025;-75
2022/05/13 04:39:53;;;;;;;0.00;0.00;;;19.00;99.90;;;;;;5020864;28;20017;-75
2022/05/13 04:45:05;;;;;;;0.00;0.00;;;19.00;99.90;;;;;;5019254;28;20111;-76
2022/05/13 04:50:16;;;;;;;0.00;0.00;;;19.00;99.90;;;;;;5022350;28;20131;-76
2022/05/13 04:52:41;;;;;;;0.00;0.00;;;19.10;99.90;;;;;;5021814;28;20026;-75
2022/05/13 04:55:08;;;;;;;0.00;0.00;;;19.00;99.90;;;;;;5019838;28;20324;-75
2022/05/13 04:57:34;;;;;;;0.00;0.00;;;19.10;99.90;;;;;;5022689;28;20022;-76
2022/05/13 04:59:59;;;;;;;0.00;0.00;;;19.00;99.90;;;;;;5020074;28;20026;-75
2022/05/13 05:02:25;;;;;;;0.00;0.00;;;19.00;99.90;;;;;;5022628;28;20042;-76
2022/05/13 05:04:51;;;;;;;0.00;0.00;;;19.00;99.90;;;;;;5022753;28;20059;-75
2022/05/13 05:07:16;;;;;;;0.00;0.00;;;19.00;99.90;;;;;;5018643;28;20047;-76
2022/05/13 05:09:42;;;;;;;0.00;0.00;;;18.90;99.90;;;;;;5034698;28;20583;-76
2022/05/13 05:12:09;;;;;;;0.00;0.00;;;19.00;99.90;;;;;;5021771;28;20034;-77
2022/05/13 05:14:35;;;;;;;0.00;0.00;;;18.90;99.90;;;;;;5028924;28;20014;-76
2022/05/13 05:17:01;;;;;;;0.00;0.00;;;18.90;99.90;;;;;;5025505;28;20025;-76
2022/05/13 05:19:27;;;;;;;0.00;0.00;;;18.90;99.90;;;;;;5025766;28;20026;-75
2022/05/13 05:21:53;;;;;;;0.00;0.00;;;18.90;99.90;;;;;;5021512;28;20024;-77
2022/05/13 05:24:18;;;;;;;0.00;0.00;;;19.00;99.90;;;;;;5020278;28;20013;-75
2022/05/13 05:26:44;;;;;;;0.00;0.00;;;18.90;99.90;;;;;;5017749;28;20726;-80
2022/05/13 05:29:10;;;;;;;0.00;0.00;;;18.90;99.90;;;;;;5020503;28;20017;-75
2022/05/13 05:31:36;;;;;;;0.00;0.00;;;19.00;99.90;;;;;;5018219;28;20029;-76
2022/05/13 05:34:02;;;;;;;0.00;0.00;;;19.00;99.90;;;;;;5024030;28;20013;-75
2022/05/13 05:36:29;;;;;;;0.00;0.00;;;19.00;99.90;;;;;;5013541;28;20376;-75
2022/05/13 05:38:54;;;;;;;0.00;0.00;;;19.00;99.90;;;;;;5021580;28;20039;-75
2022/05/13 05:41:20;;;;;;;0.00;0.00;;;19.00;99.90;;;;;;5025074;28;20076;-76
2022/05/13 05:43:46;;;;;;;0.00;0.00;;;19.10;99.90;;;;;;5016850;28;20030;-76
2022/05/13 05:46:12;;;;;;;0.00;0.00;;;19.10;99.90;;;;;;5020973;28;20037;-74
2022/05/13 05:48:37;;;;;;;0.00;0.00;;;19.20;99.90;;;;;;5028159;28;20225;-76
2022/05/13 05:51:03;;;;;;;0.00;0.00;;;19.20;99.90;;;;;;5033787;28;20060;-73
2022/05/13 05:59:00;;;;;;;0.00;0.00;;;19.20;99.90;;;;;;5023146;28;20020;-76
2022/05/13 06:01:27;;;;;;;0.00;0.00;;;19.20;99.90;;;;;;5022825;28;20038;-72
2022/05/13 06:03:53;;;;;;;0.00;0.00;;;19.30;99.90;;;;;;5025678;28;20028;-75
2022/05/13 06:06:19;;;;;;;0.00;0.00;;;19.30;99.90;;;;;;5026425;28;20040;-75
2022/05/13 06:08:45;;;;;;;0.00;0.00;;;19.30;99.90;;;;;;5020814;28;20084;-75
2022/05/13 06:11:11;;;;;;;0.00;0.00;;;19.30;99.90;;;;;;5024661;28;20030;-76
2022/05/13 06:13:37;;;;;;;0.00;0.00;;;19.40;99.90;;;;;;5023697;28;20053;-75
2022/05/13 06:16:04;;;;;;;0.00;0.00;;;19.40;99.90;;;;;;5019317;28;20111;-76
2022/05/13 06:18:30;;;;;;;0.00;0.00;;;19.40;99.90;;;;;;5016664;28;20067;-75
2022/05/13 06:20:56;;;;;;;0.00;0.00;;;19.50;99.90;;;;;;5020925;28;20025;-76
2022/05/13 06:23:21;;;;;;;0.00;0.00;;;19.50;99.90;;;;;;5018966;28;20018;-75
2022/05/13 06:25:47;;;;;;;0.00;0.00;;;19.50;99.90;;;;;;5019274;28;20022;-76
2022/05/13 06:28:13;;;;;;;0.00;0.00;;;19.50;99.90;;;;;;5018991;28;20036;-76
2022/05/13 06:30:39;;;;;;;0.00;0.00;;;19.50;99.90;;;;;;5030139;28;20170;-75
2022/05/13 06:33:05;;;;;;;0.00;0.00;;;19.60;99.90;;;;;;5018579;28;20034;-76
2022/05/13 06:35:34;;;;;;;0.00;0.00;;;19.60;99.90;;;;;;5028564;28;20305;-76
2022/05/13 06:40:43;;;;;;;0.00;0.00;;;19.90;99.90;;;;;;5030455;28;20017;-76
2022/05/13 06:43:09;;;;;;;0.00;0.00;;;19.90;99.90;;;;;;5029432;28;20204;-76
2022/05/13 06:45:35;;;;;;;0.00;0.00;;;19.90;99.90;;;;;;5029912;28;20061;-76
2022/05/13 06:48:04;;;;;;;0.00;0.00;;;19.90;99.90;;;;;;5006100;28;20048;-76
2022/05/13 06:50:30;;;;;;;0.00;0.00;;;19.80;99.90;;;;;;5021617;28;20028;-76
2022/05/13 06:52:55;;;;;;;0.00;0.00;;;19.70;99.90;;;;;;5016337;28;20033;-75
2022/05/13 06:55:21;;;;;;;0.00;0.00;;;19.70;99.90;;;;;;5005290;28;20029;-74
2022/05/13 06:57:47;;;;;;;0.00;0.00;;;19.60;99.90;;;;;;5026401;28;20022;-77
2022/05/13 07:00:13;;;;;;;0.00;0.00;;;19.60;99.90;;;;;;5020846;28;20025;-76
2022/05/13 07:02:40;;;;;;;0.00;0.00;;;19.70;99.90;;;;;;5019586;28;20104;-75
2022/05/13 07:05:07;;;;;;;0.00;0.00;;;19.70;99.90;;;;;;5017419;28;20109;-75
2022/05/13 07:07:33;;;;;;;0.00;0.00;;;19.70;99.90;;;;;;5020843;28;20040;-75
2022/05/13 07:09:59;;;;;;;0.00;0.00;;;19.70;99.90;;;;;;5019002;28;20068;-75
2022/05/13 07:12:24;;;;;;;0.00;0.00;;;19.70;99.90;;;;;;5029044;28;20342;-75
2022/05/13 07:14:50;;;;;;;0.00;0.00;;;19.80;99.90;;;;;;5021291;28;20158;-76
2022/05/13 07:17:16;;;;;;;0.00;0.00;;;19.70;99.90;;;;;;5021382;28;20034;-75
2022/05/13 07:19:41;;;;;;;0.00;0.00;;;19.60;99.90;;;;;;5004843;28;20124;-76
2022/05/13 07:22:07;;;;;;;0.00;0.00;;;19.60;99.90;;;;;;5026431;28;20088;-76
2022/05/13 07:24:33;;;;;;;0.00;0.00;;;19.60;99.90;;;;;;5020976;28;20270;-76
2022/05/13 07:26:59;;;;;;;0.00;0.00;;;19.50;99.90;;;;;;5022093;28;20030;-74
2022/05/13 07:29:25;;;;;;;0.00;0.00;;;19.50;99.90;;;;;;5028229;28;20194;-76
2022/05/13 07:31:50;;;;;;;0.00;0.00;;;19.50;99.90;;;;;;5020251;28;20355;-75
2022/05/13 07:34:16;;;;;;;0.00;0.00;;;19.40;99.90;;;;;;5025268;28;20073;-75
2022/05/13 07:36:42;;;;;;;0.00;0.00;;;19.40;99.90;;;;;;5029756;28;20022;-76
2022/05/13 07:41:53;;;;;;;0.00;0.00;;;19.30;99.90;;;;;;5026385;28;20036;-75
2022/05/13 07:44:18;;;;;;;0.00;0.00;;;19.30;99.90;;;;;;5021337;28;20017;-75
2022/05/13 07:46:45;;;;;;;0.00;0.00;;;19.30;99.90;;;;;;5026063;28;20364;-75
2022/05/13 07:49:11;;;;;;;0.00;0.00;;;19.30;99.90;;;;;;5010221;28;20330;-74
2022/05/13 07:51:37;;;;;;;0.00;0.00;;;19.30;99.90;;;;;;5023960;28;20021;-75
2022/05/13 07:54:02;;;;;;;0.00;0.00;;;19.20;99.90;;;;;;5023264;28;20029;-75
2022/05/13 07:56:30;;;;;;;0.00;0.00;;;19.10;99.90;;;;;;5018015;28;20026;-75
2022/05/13 07:58:57;;;;;;;0.00;0.00;;;19.10;99.90;;;;;;5022605;28;20183;-75
2022/05/13 08:01:24;;;;;;;0.00;0.00;;;19.10;99.90;;;;;;5023691;28;20022;-76
2022/05/13 08:03:50;;;;;;;0.00;0.00;;;19.00;99.90;;;;;;5018269;28;20026;-75
2022/05/13 08:06:15;;;;;;;0.00;0.00;;;19.00;99.90;;;;;;5027681;28;20325;-77
2022/05/13 08:08:43;;;;;;;0.00;0.00;;;19.00;99.90;;;;;;5009336;28;20058;-78
2022/05/13 08:11:14;;;;;;;0.00;0.00;;;19.00;99.90;;;;;;5025746;28;20104;-79
2022/05/13 08:13:40;;;;;;;0.00;0.00;;;19.00;99.90;;;;;;5011495;28;20033;-78
2022/05/13 08:16:10;;;;;;;0.00;0.00;;;19.00;99.90;;;;;;5010106;28;20194;-77
2022/05/13 08:18:36;;;;;;;0.00;0.00;;;19.00;99.90;;;;;;5012024;28;20032;-79
2022/05/13 08:21:02;;;;;;;0.00;0.00;;;19.10;99.90;;;;;;5010995;28;20241;-79
2022/05/13 08:23:28;;;;;;;0.00;0.00;;;19.10;99.90;;;;;;5016828;28;20067;-79
2022/05/13 08:25:54;;;;;;;0.00;0.00;;;19.20;99.90;;;;;;5016975;28;20045;-82
2022/05/13 08:28:23;;;;;;;0.00;0.00;;;19.20;99.90;;;;;;5032738;28;20057;-81
2022/05/13 08:30:50;;;;;;;0.00;0.00;;;19.20;99.90;;;;;;5033925;28;20068;-80
2022/05/13 08:33:16;;;;;;;0.00;0.00;;;19.20;99.90;;;;;;5017416;28;20037;-80
2022/05/13 08:35:46;;;;;;;0.00;0.00;;;19.20;99.90;;;;;;5014783;28;20572;-81
2022/05/13 08:38:21;;;;;;;0.00;0.00;;;19.20;99.90;;;;;;5023074;28;20668;-80
2022/05/13 08:40:52;;;;;;;0.00;0.00;;;19.20;99.90;;;;;;5005650;28;20415;-81
2022/05/13 08:43:24;;;;;;;0.00;0.00;;;19.20;99.90;;;;;;5015882;28;20032;-80
2022/05/13 08:45:59;;;;;;;0.00;0.00;;;19.30;99.90;;;;;;5030303;28;20212;-81
2022/05/13 08:48:32;;;;;;;0.00;0.00;;;19.40;99.90;;;;;;5014522;28;20100;-77
2022/05/13 08:51:35;;;;;;;0.00;0.00;;;19.70;99.90;;;;;;5014690;28;20380;-81
2022/05/13 08:54:20;;;;;;;0.00;0.00;;;20.10;99.90;;;;;;5015725;28;20030;-81
2022/05/13 08:56:54;;;;;;;0.00;0.00;;;20.70;99.90;;;;;;5014528;28;20021;-75
2022/05/13 08:59:44;;;;;;;0.00;0.00;;;21.50;99.90;;;;;;5013676;28;20021;-81
2022/05/13 09:02:22;;;;;;;0.00;0.00;;;22.20;99.90;;;;;;5014508;28;20136;-83
2022/05/13 09:05:20;;;;;;;0.00;0.00;;;22.80;99.90;;;;;;5014651;28;20373;-82
2022/05/13 09:07:47;;;;;;;0.00;0.00;;;23.40;99.90;;;;;;5008508;28;20032;-77
2022/05/13 09:10:14;;;;;;;0.00;0.00;;;23.50;99.90;;;;;;5000147;28;20033;-82
2022/05/13 09:12:51;;;;;;;0.00;0.00;;;23.60;99.90;;;;;;5033677;28;20096;-80
2022/05/13 09:15:50;;;;;;;0.00;0.00;;;23.60;99.90;;;;;;5017806;28;20034;-80
2022/05/13 09:18:25;;;;;;;0.00;0.00;;;23.60;99.90;;;;;;5014403;28;20063;-78
2022/05/13 09:21:01;;;;;;;0.00;0.00;;;23.40;99.90;;;;;;5001737;28;20061;-83
2022/05/13 09:23:27;;;;;;;0.00;0.00;;;23.30;99.90;;;;;;5015513;28;20021;-79
2022/05/13 09:26:03;;;;;;;0.00;0.00;;;23.50;99.90;;;;;;5015806;28;20032;-79
2022/05/13 09:28:31;;;;;;;0.00;0.00;;;23.70;99.90;;;;;;5015465;28;20068;-76
2022/05/13 09:31:06;;;;;;;0.00;0.00;;;23.80;99.90;;;;;;5016282;28;20034;-75
2022/05/13 09:33:40;;;;;;;0.00;0.00;;;23.60;99.90;;;;;;5013872;28;20010;-78
2022/05/13 09:36:21;;;;;;;0.00;0.00;;;23.50;99.90;;;;;;5015176;28;20032;-79
2022/05/13 09:38:56;;;;;;;0.00;0.00;;;23.00;99.90;;;;;;5029609;28;20506;-78
2022/05/13 09:41:27;;;;;;;0.00;0.00;;;23.40;99.90;;;;;;5005607;28;20029;-79
2022/05/13 09:43:56;;;;;;;0.00;0.00;;;23.90;99.90;;;;;;5034175;28;20105;-75
2022/05/13 09:46:24;;;;;;;0.00;0.00;;;24.70;99.90;;;;;;5034127;28;20101;-81
2022/05/13 09:48:59;;;;;;;0.00;0.00;;;25.20;99.50;;;;;;5015181;28;20022;-81
2022/05/13 09:51:35;;;;;;;0.00;0.00;;;24.80;98.70;;;;;;5029107;28;20032;-77
2022/05/13 09:54:15;;;;;;;0.00;0.00;;;24.30;99.50;;;;;;5022006;28;20034;-85
2022/05/13 09:56:53;;;;;;;0.00;0.00;;;23.70;99.90;;;;;;5037746;28;20051;-86
2022/05/13 09:59:25;;;;;;;0.00;0.00;;;23.30;99.90;;;;;;5020039;28;20014;-86
2022/05/13 10:01:51;;;;;;;0.00;0.00;;;23.10;99.90;;;;;;5017858;28;20366;-79
2022/05/13 10:04:26;;;;;;;0.00;0.00;;;22.90;99.90;;;;;;5019924;28;20033;-83
2022/05/13 10:07:05;;;;;;;0.00;0.00;;;22.80;99.90;;;;;;5014471;28;20033;-76
2022/05/13 10:15:39;;;;;;;0.00;0.00;;;22.70;99.90;;;;;;5015655;28;20025;-78
2022/05/13 10:18:08;;;;;;;0.00;0.00;;;22.60;99.90;;;;;;5012166;28;20033;-80
2022/05/13 10:20:40;;;;;;;0.00;0.00;;;22.40;99.90;;;;;;5013297;28;20068;-82
2022/05/13 10:23:19;;;;;;;0.00;0.00;;;22.40;99.90;;;;;;5010858;28;20036;-78
2022/05/13 10:26:03;;;;;;;0.00;0.00;;;22.40;99.90;;;;;;5015790;28;20025;-79
2022/05/13 10:28:52;;;;;;;0.00;0.00;;;22.60;99.90;;;;;;5017434;28;20029;-78
2022/05/13 10:31:22;;;;;;;0.00;0.00;;;22.60;99.90;;;;;;5013846;28;20022;-79
2022/05/13 10:33:55;;;;;;;0.00;0.00;;;22.60;99.90;;;;;;5030793;28;20055;-79
2022/05/13 10:36:43;;;;;;;0.00;0.00;;;22.70;99.90;;;;;;5012357;28;20308;-84
2022/05/13 10:39:22;;;;;;;0.00;0.00;;;22.70;99.90;;;;;;5016950;28;20096;-79
2022/05/13 10:41:48;;;;;;;0.00;0.00;;;22.70;99.90;;;;;;4994595;28;20033;-80
2022/05/13 10:44:37;;;;;;;0.00;0.00;;;22.70;99.90;;;;;;5022712;28;20565;-78
2022/05/13 10:47:11;;;;;;;0.00;0.00;;;22.80;99.90;;;;;;5016622;28;20048;-80
2022/05/13 10:49:42;;;;;;;0.00;0.00;;;23.10;99.90;;;;;;5016668;28;20045;-80
2022/05/13 10:52:22;;;;;;;0.00;0.00;;;23.50;99.90;;;;;;5017291;28;20024;-79
2022/05/13 10:54:50;;;;;;;0.00;0.00;;;23.70;99.90;;;;;;5018797;28;20053;-79
2022/05/13 10:57:34;;;;;;;0.00;0.00;;;23.90;99.80;;;;;;5022865;28;20088;-79
2022/05/13 11:00:16;;;;;;;0.00;0.00;;;24.00;99.90;;;;;;5022926;28;20204;-80
2022/05/13 11:02:42;;;;;;;0.00;0.00;;;24.00;98.70;;;;;;5024835;28;20037;-81
2022/05/13 11:05:31;;;;;;;0.00;0.00;;;24.10;99.10;;;;;;5023555;28;20084;-78
2022/05/13 11:08:17;;;;;;;0.00;0.00;;;24.10;99.00;;;;;;5009525;28;20042;-77
2022/05/13 11:11:18;;;;;;;0.00;0.00;;;24.20;98.80;;;;;;5016978;28;20151;-77
2022/05/13 11:13:55;;;;;;;0.00;0.00;;;24.30;98.30;;;;;;5024501;28;20029;-76
2022/05/13 11:16:39;;;;;;;0.00;0.00;;;24.50;98.70;;;;;;5025602;28;20022;-77
2022/05/13 11:19:29;;;;;;;0.00;0.00;;;25.00;97.10;;;;;;5022668;28;20380;-79
2022/05/13 11:22:09;;;;;;;0.00;0.00;;;24.80;96.00;;;;;;5038202;28;20049;-79
2022/05/13 11:28:02;;;;;;;0.00;0.00;;;24.80;96.10;;;;;;5024018;28;21119;-77
2022/05/13 11:30:33;;;;;;;0.00;0.00;;;24.60;95.70;;;;;;5020783;28;20104;-78
2022/05/13 11:33:30;;;;;;;0.00;0.00;;;24.60;96.80;;;;;;5004374;28;20073;-77
2022/05/13 11:36:28;;;;;;;0.00;0.00;;;25.50;95.70;;;;;;5019948;28;20029;-78
2022/05/13 11:39:05;;;;;;;0.00;0.00;;;25.80;93.90;;;;;;5021337;28;20038;-75
2022/05/13 11:41:41;;;;;;;;;;;25.40;94.10;;;;;;5031349;28;20044;-75
2022/05/13 11:44:07;;;;;;;0.00;0.00;;;25.00;94.70;;;;;;5045743;28;19909;-75
2022/05/13 11:46:54;;;;;;;0.00;0.00;;;24.70;95.40;;;;;;5027027;28;20035;-75
2022/05/13 11:49:29;;;;;;;0.00;0.00;;;24.40;94.80;;;;;;5030538;28;20021;-73
2022/05/13 11:52:02;;;;;;;0.00;0.00;;;24.20;95.80;;;;;;5031902;28;20033;-75
2022/05/13 11:54:29;;;;;;;0.00;0.00;;;24.00;94.90;;;;;;5030015;28;20311;-74
2022/05/13 11:57:18;;;;;;;0.00;0.00;;;23.80;95.80;;;;;;5031137;28;20025;-74
2022/05/13 12:00:08;;;;;;;0.00;0.00;;;23.70;95.70;;;;;;5047253;28;20048;-75
2022/05/13 12:02:55;;;;;;;0.00;0.00;;;23.70;96.20;;;;;;5033683;28;20037;-78
2022/05/13 12:05:20;;;;;;;0.00;0.00;;;23.70;95.40;;;;;;5031272;28;20026;-74
2022/05/13 12:08:15;;;;;;;0.00;0.00;;;23.70;96.00;;;;;;5034985;28;20316;-75
2022/05/13 12:10:50;;;;;;;0.00;0.00;;;23.60;95.20;;;;;;5043199;28;20041;-74
2022/05/13 12:13:31;;;;;;;0.00;0.00;;;23.60;96.40;;;;;;5027051;28;20026;-76
2022/05/13 12:16:28;;;;;;;0.00;0.00;;;23.60;95.80;;;;;;5037828;28;20018;-72
2022/05/13 12:19:11;;;;;;;0.00;0.00;;;23.70;94.90;;;;;;5020929;28;20022;-75
2022/05/13 12:21:45;;;;;;;0.00;0.00;;;23.70;95.40;;;;;;5024674;28;20013;-75
2022/05/13 12:24:10;;;;;;;0.00;0.00;;;23.80;95.00;;;;;;5027031;28;20025;-74
2022/05/13 12:26:51;;;;;;;0.00;0.00;;;23.80;95.10;;;;;;5040348;28;20034;-75
2022/05/13 12:29:39;;;;;;;0.00;0.00;;;23.90;94.60;;;;;;5024454;28;20021;-76
2022/05/13 12:32:06;;;;;;;0.00;0.00;;;23.90;95.20;;;;;;5025019;28;20033;-75
2022/05/13 12:37:45;;;;;;;0.00;0.00;;;23.80;95.40;;;;;;5024003;28;20032;-76
2022/05/13 12:40:17;;;;;;;0.00;0.00;;;23.80;94.40;;;;;;5023147;28;20040;-76
2022/05/13 12:42:51;;;;;;;0.00;0.00;;;23.80;94.60;;;;;;5040407;28;20201;-76
2022/05/13 12:45:39;;;;;;;0.00;0.00;;;23.80;94.90;;;;;;5023709;28;20025;-77
2022/05/13 12:48:04;;;;;;;0.00;0.00;;;23.60;94.90;;;;;;5024381;28;20022;-77
2022/05/13 12:50:45;;;;;;;0.00;0.00;;;23.60;94.80;;;;;;5025186;28;20024;-77
2022/05/13 12:53:58;;;;;;;0.00;0.00;;;23.40;93.80;;;;;;5043494;28;20205;-76
2022/05/13 12:56:42;;;;;;;0.00;0.00;;;23.20;94.20;;;;;;5009117;28;20040;-74
2022/05/13 12:59:12;;;;;;;0.00;0.00;;;23.20;94.70;;;;;;5023659;28;20060;-76
2022/05/13 13:01:42;;;;;;;0.00;0.00;;;23.10;94.50;;;;;;5024227;28;20205;-76
2022/05/13 13:04:09;;;;;;;0.00;0.00;;;23.10;94.90;;;;;;5024103;28;20017;-76
2022/05/13 13:06:40;;;;;;;0.00;0.00;;;23.10;94.90;;;;;;5023006;28;20365;-76
2022/05/13 13:09:10;;;;;;;0.00;0.00;;;23.10;95.20;;;;;;5021983;28;20124;-75
2022/05/13 13:11:48;;;;;;;0.00;0.00;;;23.20;95.20;;;;;;5023025;28;20018;-76
2022/05/13 13:14:37;;;;;;;0.00;0.00;;;23.20;95.60;;;;;;5021868;28;20266;-76
2022/05/13 13:17:22;;;;;;;0.00;0.00;;;23.20;95.40;;;;;;5002390;28;20041;-76
2022/05/13 13:19:48;;;;;;;0.00;0.00;;;23.30;95.10;;;;;;5022533;28;20018;-75
2022/05/13 13:22:20;;;;;;;0.00;0.00;;;23.40;95.70;;;;;;5024515;28;20049;-76
2022/05/13 13:24:46;;;;;;;0.00;0.00;;;23.50;95.40;;;;;;5024492;28;20021;-75
2022/05/13 13:27:21;;;;;;;0.00;0.00;;;23.50;95.50;;;;;;5039377;28;20084;-74
2022/05/13 13:29:49;;;;;;;0.00;0.00;;;23.50;95.30;;;;;;5022400;28;20068;-74
2022/05/13 13:32:17;;;;;;;0.00;0.00;;;23.60;95.40;;;;;;5024289;28;20017;-75
2022/05/13 13:35:01;;;;;;;0.00;0.00;;;23.70;95.40;;;;;;5023987;28;20313;-74
2022/05/13 13:37:30;;;;;;;0.00;0.00;;;23.80;95.10;;;;;;5022576;28;20095;-78
2022/05/13 13:40:07;;;;;;;0.00;0.00;;;23.80;95.00;;;;;;5021189;28;20025;-76
2022/05/13 13:42:33;;;;;;;0.00;0.00;;;23.80;94.10;;;;;;5026798;28;20010;-76
2022/05/13 13:45:11;;;;;;;0.00;0.00;;;23.90;94.30;;;;;;5026437;28;20165;-75